Time;durP1;ratioP1;P1;durP2;ratioP2;P2;SDS_P1;SDS_P2;PMS_P1;PMS_P2;Temp;Humidity;BMP_temperature;BMP_pressure;BME280_temperature;BME280_humidity;BME280_pressure;Samples;Min_cycle;Max_cycle;Signal;HPM_P1;HPM_P2
2020/12/04 00:00:18;;;;;;;47.23;27.43;;;;;;;5.38;100.00;97555.63;1688353;83;936972;-75
2020/12/04 00:02:50;;;;;;;48.17;28.30;;;;;;;5.49;100.00;97556.29;1708126;82;936724;-76
2020/12/04 00:05:22;;;;;;;47.88;26.90;;;;;;;5.31;100.00;97560.83;1695974;82;936744;-76
2020/12/04 00:07:53;;;;;;;48.42;29.10;;;;;;;5.41;100.00;97557.71;1707850;81;936699;-75
2020/12/04 00:10:25;;;;;;;46.68;27.37;;;;;;;5.50;100.00;97553.78;1696902;82;936955;-75
2020/12/04 00:12:57;;;;;;;50.27;27.30;;;;;;;5.65;100.00;97539.99;1708334;81;936658;-75
2020/12/04 00:15:31;;;;;;;48.73;28.30;;;;;;;5.44;100.00;97537.20;1694747;82;946406;-75
2020/12/04 00:18:01;;;;;;;43.87;26.57;;;;;;;5.43;100.00;97535.59;1707691;82;935079;-75
2020/12/04 00:20:32;;;;;;;44.80;27.37;;;;;;;5.57;100.00;97533.16;1696536;81;936765;-75
2020/12/04 00:23:03;;;;;;;47.93;28.90;;;;;;;5.49;100.00;97522.45;1708145;82;934865;-74
2020/12/04 00:25:35;;;;;;;43.47;27.83;;;;;;;5.49;100.00;97524.64;1696703;81;936939;-76
2020/12/04 00:28:05;;;;;;;42.00;26.33;;;;;;;5.49;100.00;97511.44;1708070;82;934844;-75
2020/12/04 00:30:36;;;;;;;45.53;24.77;;;;;;;5.48;100.00;97506.51;1696840;82;936867;-75
2020/12/04 00:33:07;;;;;;;38.53;23.43;;;;;;;5.48;100.00;97503.75;1708087;81;934865;-75
2020/12/04 00:35:38;;;;;;;45.83;25.90;;;;;;;5.53;100.00;97500.00;1696465;81;936884;-75
2020/12/04 00:38:10;;;;;;;39.77;24.13;;;;;;;5.50;100.00;97495.98;1708120;81;934982;-75
2020/12/04 00:40:41;;;;;;;42.40;23.47;;;;;;;5.56;100.00;97501.30;1708052;82;936918;-75
2020/12/04 00:43:12;;;;;;;38.03;23.07;;;;;;;5.58;100.00;97496.25;1708112;81;934724;-75
2020/12/04 00:45:43;;;;;;;43.17;23.23;;;;;;;5.48;100.00;97489.19;1707927;82;936770;-75
2020/12/04 00:48:18;;;;;;;38.23;22.98;;;;;;;5.55;100.00;97487.30;1704273;82;936681;-76
2020/12/04 00:50:49;;;;;;;40.17;21.90;;;;;;;5.55;100.00;97483.98;1698629;82;936797;-76
2020/12/04 00:53:20;;;;;;;42.60;21.70;;;;;;;5.56;100.00;97477.34;1696814;82;936668;-75
2020/12/04 00:55:53;;;;;;;37.43;21.40;;;;;;;5.56;100.00;97478.72;1708095;82;936731;-75
2020/12/04 00:58:24;;;;;;;39.90;21.30;;;;;;;5.58;100.00;97475.04;1696871;82;936695;-75
2020/12/04 01:00:55;;;;;;;35.57;21.77;;;;;;;5.61;100.00;97472.98;1708510;82;936776;-76
2020/12/04 01:03:25;;;;;;;34.70;20.55;;;;;;;5.61;100.00;97472.17;1696837;82;936741;-76
2020/12/04 01:05:55;;;;;;;35.80;20.07;;;;;;;5.72;100.00;97464.58;1707061;82;936738;-76
2020/12/04 01:08:25;;;;;;;33.13;20.17;;;;;;;5.62;100.00;97459.47;1696942;82;936779;-75
2020/12/04 01:10:56;;;;;;;34.40;20.03;;;;;;;5.59;100.00;97458.77;1707945;81;936680;-75
2020/12/04 01:13:25;;;;;;;37.28;21.17;;;;;;;5.62;100.00;97458.66;1696910;81;936777;-74
2020/12/04 01:15:55;;;;;;;33.50;20.70;;;;;;;5.67;100.00;97461.21;1708133;83;936790;-75
2020/12/04 01:18:25;;;;;;;30.00;19.33;;;;;;;5.69;100.00;97459.72;1696842;82;936854;-75
2020/12/04 01:20:55;;;;;;;29.67;19.20;;;;;;;5.71;100.00;97454.70;1708001;82;936715;-75
2020/12/04 01:23:25;;;;;;;28.57;18.63;;;;;;;5.70;100.00;97446.77;1696492;81;939724;-75
2020/12/04 01:25:54;;;;;;;31.37;19.60;;;;;;;5.71;100.00;97450.57;1708052;82;936649;-75
2020/12/04 01:28:24;;;;;;;28.67;18.70;;;;;;;5.72;100.00;97445.88;1696878;82;936751;-75
2020/12/04 01:30:54;;;;;;;31.23;19.27;;;;;;;5.73;100.00;97440.04;1707821;82;936883;-75
2020/12/04 01:33:24;;;;;;;29.87;17.52;;;;;;;5.72;100.00;97436.23;1696900;81;936779;-75
2020/12/04 01:35:54;;;;;;;30.63;17.83;;;;;;;5.70;100.00;97435.19;1708116;81;936938;-75
2020/12/04 01:38:24;;;;;;;29.27;18.40;;;;;;;5.70;100.00;97433.00;1696720;81;936762;-76
2020/12/04 01:40:59;;;;;;;31.93;18.50;;;;;;;5.70;100.00;97435.75;1708150;81;936768;-76
2020/12/04 01:43:30;;;;;;;31.42;18.52;;;;;;;5.69;100.00;97432.79;1696701;82;936679;-76
2020/12/04 01:46:01;;;;;;;33.50;19.70;;;;;;;5.70;100.00;97435.75;1707349;83;934885;-76
2020/12/04 01:48:31;;;;;;;34.13;19.70;;;;;;;5.73;100.00;97434.53;1697069;82;936906;-76
2020/12/04 01:51:02;;;;;;;35.47;20.90;;;;;;;5.79;100.00;97424.09;1707276;82;934817;-76
2020/12/04 01:53:32;;;;;;;31.53;19.20;;;;;;;5.79;100.00;97429.61;1696503;81;936642;-75
2020/12/04 01:56:02;;;;;;;36.00;21.67;;;;;;;5.75;100.00;97428.67;1708045;82;934884;-76
2020/12/04 01:58:32;;;;;;;36.83;21.37;;;;;;;5.74;100.00;97421.55;1696919;82;937096;-75
2020/12/04 02:01:03;;;;;;;37.43;21.30;;;;;;;5.72;100.00;97416.97;1708092;81;934959;-75
2020/12/04 02:03:34;;;;;;;36.07;21.20;;;;;;;5.69;100.00;97419.02;1697029;82;936689;-75
2020/12/04 02:06:07;;;;;;;39.60;20.57;;;;;;;5.69;100.00;97417.65;1706053;82;934911;-75
2020/12/04 02:08:40;;;;;;;35.53;19.50;;;;;;;5.65;100.00;97421.62;1696737;82;936930;-76
2020/12/04 02:11:15;;;;;;;38.07;21.30;;;;;;;5.61;100.00;97416.55;1702992;82;934808;-76
2020/12/04 02:13:45;;;;;;;37.40;19.80;;;;;;;5.63;100.00;97419.80;1702894;82;936675;-76
2020/12/04 02:16:18;;;;;;;37.40;19.87;;;;;;;5.60;100.00;97420.47;1696908;83;936698;-75
2020/12/04 02:18:48;;;;;;;38.33;21.93;;;;;;;5.60;100.00;97416.34;1707330;83;936778;-76
2020/12/04 02:21:19;;;;;;;36.13;19.90;;;;;;;5.54;100.00;97416.87;1696459;83;936803;-75
2020/12/04 02:23:51;;;;;;;35.93;20.03;;;;;;;5.49;100.00;97420.06;1708066;81;936718;-75
2020/12/04 02:26:23;;;;;;;37.67;20.27;;;;;;;5.43;100.00;97413.73;1696553;81;937192;-76
2020/12/04 02:28:53;;;;;;;39.83;20.63;;;;;;;5.40;100.00;97419.88;1707284;82;936682;-74
2020/12/04 02:31:23;;;;;;;36.63;20.52;;;;;;;5.40;100.00;97418.50;1696338;82;936791;-74
2020/12/04 02:33:52;;;;;;;36.43;20.70;;;;;;;5.36;100.00;97414.25;1708007;82;937148;-74
2020/12/04 02:36:22;;;;;;;33.73;20.13;;;;;;;5.36;100.00;97413.44;1696608;82;936836;-74
2020/12/04 02:38:52;;;;;;;34.80;19.27;;;;;;;5.36;100.00;97413.44;1708182;82;936820;-74
2020/12/04 02:41:22;;;;;;;35.98;20.20;;;;;;;5.29;100.00;97408.48;1696950;81;936739;-74
2020/12/04 02:43:52;;;;;;;35.00;20.93;;;;;;;5.36;100.00;97408.74;1707519;83;936745;-74
2020/12/04 02:46:22;;;;;;;35.63;20.32;;;;;;;5.26;100.00;97416.01;1696855;82;936903;-74
2020/12/04 02:48:51;;;;;;;41.30;22.10;;;;;;;5.29;100.00;97410.42;1707801;82;936695;-75
2020/12/04 02:51:21;;;;;;;41.33;21.65;;;;;;;5.32;100.00;97406.43;1696622;82;936692;-74
2020/12/04 02:53:51;;;;;;;36.20;21.07;;;;;;;5.27;100.00;97406.62;1708029;82;936658;-74
2020/12/04 02:56:21;;;;;;;35.85;19.90;;;;;;;5.25;100.00;97406.73;1696819;81;936811;-74
2020/12/04 02:58:51;;;;;;;36.73;19.47;;;;;;;5.18;100.00;97401.75;1707970;81;936677;-74
2020/12/04 03:01:21;;;;;;;37.63;20.35;;;;;;;5.20;100.00;97393.17;1696731;83;936691;-74
2020/12/04 03:03:51;;;;;;;34.70;19.57;;;;;;;5.14;100.00;97400.00;1708026;81;936783;-75
2020/12/04 03:06:21;;;;;;;34.00;20.93;;;;;;;5.09;100.00;97398.28;1696747;82;936697;-74
2020/12/04 03:08:51;;;;;;;31.57;18.27;;;;;;;5.09;100.00;97406.53;1707019;82;936658;-74
2020/12/04 03:11:22;;;;;;;33.50;19.70;;;;;;;5.05;100.00;97405.55;1696899;83;936791;-76
2020/12/04 03:13:52;;;;;;;28.57;17.87;;;;;;;4.97;100.00;97408.60;1707001;81;936583;-75
2020/12/04 03:16:22;;;;;;;31.48;18.50;;;;;;;5.01;100.00;97405.42;1695539;82;936864;-75
2020/12/04 03:18:52;;;;;;;34.15;19.00;;;;;;;5.00;100.00;97426.39;1708181;82;936727;-74
2020/12/04 03:21:21;;;;;;;30.97;18.37;;;;;;;4.98;100.00;97417.66;1696733;81;936926;-75
2020/12/04 03:23:51;;;;;;;31.87;18.70;;;;;;;4.94;100.00;97418.90;1707997;83;936806;-74
2020/12/04 03:26:21;;;;;;;33.42;18.73;;;;;;;4.99;100.00;97417.34;1696515;82;936897;-75
2020/12/04 03:28:51;;;;;;;33.40;19.87;;;;;;;4.94;100.00;97414.77;1708135;81;936697;-75
2020/12/04 03:31:21;;;;;;;29.70;18.10;;;;;;;4.97;100.00;97420.97;1696961;81;936905;-75
2020/12/04 03:33:50;;;;;;;32.60;18.12;;;;;;;5.00;100.00;97415.39;1707907;82;936926;-74
2020/12/04 03:36:20;;;;;;;26.82;16.12;;;;;;;5.01;100.00;97419.17;1696728;82;936873;-75
2020/12/04 03:38:50;;;;;;;30.20;18.53;;;;;;;4.95;100.00;97419.14;1707251;82;936736;-75
2020/12/04 03:41:20;;;;;;;32.13;18.53;;;;;;;4.99;100.00;97416.53;1696912;82;936869;-75
2020/12/04 03:43:50;;;;;;;31.93;19.13;;;;;;;4.96;100.00;97413.86;1707997;82;936724;-74
2020/12/04 03:46:20;;;;;;;33.60;19.50;;;;;;;4.96;100.00;97411.11;1696616;82;936801;-75
2020/12/04 03:48:49;;;;;;;33.73;19.30;;;;;;;4.96;100.00;97410.33;1707631;81;936733;-74
2020/12/04 03:51:19;;;;;;;33.02;19.90;;;;;;;4.91;100.00;97409.95;1696780;82;936782;-74
2020/12/04 03:53:49;;;;;;;30.53;19.10;;;;;;;4.98;100.00;97412.97;1708021;82;936712;-75
2020/12/04 03:56:19;;;;;;;32.03;20.00;;;;;;;4.94;100.00;97427.14;1695994;81;936786;-75
2020/12/04 03:58:49;;;;;;;28.33;17.03;;;;;;;4.91;100.00;97413.27;1708111;81;937007;-75
2020/12/04 04:01:19;;;;;;;29.35;17.95;;;;;;;4.94;100.00;97422.21;1696380;81;936990;-75
2020/12/04 04:03:50;;;;;;;28.80;16.50;;;;;;;4.93;100.00;97426.09;1708253;82;936693;-72
2020/12/04 04:06:19;;;;;;;27.30;16.17;;;;;;;4.87;100.00;97426.88;1696890;82;936732;-74
2020/12/04 04:08:49;;;;;;;24.03;15.23;;;;;;;4.88;100.00;97424.34;1707752;82;936674;-73
2020/12/04 04:11:20;;;;;;;27.45;16.17;;;;;;;4.88;100.00;97433.96;1697066;81;936762;-74
2020/12/04 04:13:50;;;;;;;27.03;15.47;;;;;;;4.91;100.00;97433.88;1707274;81;936916;-74
2020/12/04 04:16:20;;;;;;;23.90;15.50;;;;;;;4.91;100.00;97434.70;1696968;82;936973;-74
2020/12/04 04:18:50;;;;;;;25.83;15.83;;;;;;;4.89;100.00;97438.89;1708193;81;936844;-74
2020/12/04 04:21:20;;;;;;;18.02;12.10;;;;;;;4.88;100.00;97444.15;1697135;82;936765;-74
2020/12/04 04:23:50;;;;;;;19.37;12.77;;;;;;;4.84;100.00;97444.57;1708075;82;936677;-74
2020/12/04 04:26:20;;;;;;;22.20;14.17;;;;;;;4.83;100.00;97443.80;1696728;81;937148;-73
2020/12/04 04:28:50;;;;;;;19.00;13.47;;;;;;;4.83;100.00;97445.73;1708208;81;936831;-74
2020/12/04 04:31:20;;;;;;;20.20;13.48;;;;;;;4.86;100.00;97447.81;1696832;82;936796;-75
2020/12/04 04:33:50;;;;;;;18.07;13.47;;;;;;;4.86;100.00;97450.56;1707993;81;936720;-74
2020/12/04 04:36:20;;;;;;;18.93;12.80;;;;;;;4.94;100.00;97449.14;1696500;83;936973;-74
2020/12/04 04:38:49;;;;;;;20.03;11.87;;;;;;;4.80;100.00;97448.56;1707102;82;936701;-73
2020/12/04 04:41:19;;;;;;;18.25;12.63;;;;;;;4.90;100.00;97452.88;1696781;82;936922;-74
2020/12/04 04:43:50;;;;;;;18.70;12.20;;;;;;;4.90;100.00;97454.26;1708158;81;936789;-74
2020/12/04 04:46:23;;;;;;;17.63;12.77;;;;;;;4.89;100.00;97451.27;1696865;82;937214;-75
2020/12/04 04:48:55;;;;;;;16.77;12.03;;;;;;;4.83;100.00;97452.05;1707962;82;936759;-73
2020/12/04 04:51:25;;;;;;;17.02;11.63;;;;;;;4.95;100.00;97462.33;1696677;82;942517;-74
2020/12/04 04:53:58;;;;;;;17.00;11.13;;;;;;;4.80;100.00;97462.30;1707262;81;936886;-74
2020/12/04 04:56:27;;;;;;;15.43;10.10;;;;;;;4.73;100.00;97460.64;1696740;82;936697;-74
2020/12/04 04:58:57;;;;;;;16.97;11.70;;;;;;;4.77;100.00;97459.41;1702767;82;936812;-74
2020/12/04 05:01:27;;;;;;;16.50;11.48;;;;;;;4.77;100.00;97462.16;1685641;81;936780;-74
2020/12/04 05:03:59;;;;;;;16.37;11.30;;;;;;;4.83;100.00;97466.35;1708062;82;937079;-74
2020/12/04 05:06:36;;;;;;;17.90;12.20;;;;;;;4.79;100.00;97469.53;1695887;81;936964;-74
2020/12/04 05:09:07;;;;;;;13.67;10.77;;;;;;;4.84;100.00;97483.06;1708002;81;935172;-74
2020/12/04 05:11:37;;;;;;;17.33;12.27;;;;;;;4.77;100.00;97482.22;1696367;83;936855;-74
2020/12/04 05:14:15;;;;;;;16.97;12.43;;;;;;;4.75;100.00;97483.09;1707984;81;935037;-74
2020/12/04 05:16:46;;;;;;;18.67;12.10;;;;;;;4.77;100.00;97481.41;1708114;83;936729;-74
2020/12/04 05:19:19;;;;;;;18.63;13.27;;;;;;;4.85;100.00;97481.93;1696702;82;936781;-74
2020/12/04 05:21:49;;;;;;;20.43;13.10;;;;;;;4.78;100.00;97489.33;1705981;82;936674;-74
2020/12/04 05:24:26;;;;;;;17.42;13.30;;;;;;;4.81;100.00;97493.35;1691434;82;936902;-74
2020/12/04 05:26:56;;;;;;;18.23;12.63;;;;;;;4.83;100.00;97491.91;1708053;82;937088;-74
2020/12/04 05:29:38;;;;;;;17.02;12.18;;;;;;;4.86;100.00;97495.36;1697142;82;936803;-74
2020/12/04 05:32:15;;;;;;;16.87;11.70;;;;;;;4.72;100.00;97501.63;1708081;82;934853;-75
2020/12/04 05:34:45;;;;;;;16.83;11.63;;;;;;;4.81;100.00;97497.48;1707709;83;936735;-74
2020/12/04 05:37:19;;;;;;;14.73;10.27;;;;;;;4.76;100.00;97502.59;1696813;82;936685;-75
2020/12/04 05:39:50;;;;;;;16.20;11.37;;;;;;;4.76;100.00;97506.70;1708035;82;936619;-74
2020/12/04 05:42:32;;;;;;;15.25;10.63;;;;;;;4.72;100.00;97513.19;1696827;82;936560;-74
2020/12/04 05:45:03;;;;;;;16.37;11.97;;;;;;;4.80;100.00;97511.78;1707603;81;935066;-74
2020/12/04 05:47:39;;;;;;;14.10;11.37;;;;;;;4.77;100.00;97519.89;1696805;82;936707;-74
2020/12/04 05:50:11;;;;;;;14.07;10.65;;;;;;;4.84;100.00;97517.42;1708092;81;934831;-73
2020/12/04 05:52:42;;;;;;;14.73;11.27;;;;;;;4.83;100.00;97518.59;1708001;82;936759;-74
2020/12/04 05:55:12;;;;;;;14.35;10.98;;;;;;;4.77;100.00;97526.20;1702747;82;934798;-74
2020/12/04 05:58:01;;;;;;;14.97;11.17;;;;;;;4.78;100.00;97525.07;1707912;83;936815;-74
2020/12/04 06:00:32;;;;;;;15.03;11.50;;;;;;;4.80;100.00;97526.91;1691890;81;936676;-74
2020/12/04 06:03:05;;;;;;;13.53;10.40;;;;;;;4.77;100.00;97533.06;1708095;83;934820;-73
2020/12/04 06:05:34;;;;;;;14.37;10.17;;;;;;;4.70;100.00;97538.84;1696583;81;936767;-74
2020/12/04 06:08:06;;;;;;;13.20;10.37;;;;;;;4.74;100.00;97548.04;1708110;82;934771;-74
2020/12/04 06:10:37;;;;;;;14.20;10.67;;;;;;;4.68;100.00;97548.77;1697070;81;936860;-76
2020/12/04 06:13:07;;;;;;;14.67;10.97;;;;;;;4.71;100.00;97551.42;1708025;81;934962;-73
2020/12/04 06:15:37;;;;;;;15.00;11.60;;;;;;;4.59;100.00;97554.86;1696440;83;936755;-74
2020/12/04 06:18:11;;;;;;;15.63;11.30;;;;;;;4.68;100.00;97558.95;1708020;83;934857;-74
2020/12/04 06:20:46;;;;;;;16.27;12.33;;;;;;;4.71;100.00;97559.67;1707579;81;936944;-73
2020/12/04 06:23:18;;;;;;;17.20;12.73;;;;;;;4.61;100.00;97560.03;1696814;82;936796;-74
2020/12/04 06:25:59;;;;;;;19.43;14.13;;;;;;;4.71;100.00;97565.17;1705609;83;936723;-74
2020/12/04 06:28:31;;;;;;;17.55;12.82;;;;;;;4.69;100.00;97560.58;1697006;82;936653;-73
2020/12/04 06:31:07;;;;;;;17.37;12.60;;;;;;;4.66;100.00;97566.73;1708116;81;934864;-73
2020/12/04 06:33:42;;;;;;;20.20;14.43;;;;;;;4.64;100.00;97557.44;1696836;82;936752;-74
2020/12/04 06:36:14;;;;;;;17.77;12.93;;;;;;;4.59;100.00;97568.03;1708041;82;935054;-74
2020/12/04 06:38:48;;;;;;;17.20;12.40;;;;;;;4.70;100.00;97571.83;1708021;83;936908;-74
2020/12/04 06:41:32;;;;;;;16.77;12.63;;;;;;;4.62;100.00;97563.03;1696878;82;936751;-75
2020/12/04 06:44:05;;;;;;;16.57;12.00;;;;;;;4.64;100.00;97563.50;1708071;81;934659;-74
2020/12/04 06:46:41;;;;;;;19.20;12.80;;;;;;;4.63;100.00;97572.87;1696532;81;936767;-74
2020/12/04 06:49:22;;;;;;;16.70;11.97;;;;;;;4.66;100.00;97568.92;1708136;82;934809;-73
2020/12/04 06:51:48;;;;;;;17.97;12.87;;;;;;;4.64;100.00;97580.80;1706794;82;936513;-74
2020/12/04 06:54:20;;;;;;;16.25;11.85;;;;;;;4.61;100.00;97589.70;1695900;82;936670;-74
2020/12/04 06:56:51;;;;;;;16.80;12.00;;;;;;;4.66;100.00;97587.35;1702538;82;936921;-73
2020/12/04 06:59:29;;;;;;;16.55;11.63;;;;;;;4.60;100.00;97594.95;1696679;83;936667;-74
2020/12/04 07:02:06;;;;;;;16.27;11.77;;;;;;;4.61;100.00;97593.02;1708137;83;934712;-74
2020/12/04 07:04:37;;;;;;;14.77;10.93;;;;;;;4.53;100.00;97600.95;1696960;83;936733;-73
2020/12/04 07:07:10;;;;;;;15.33;10.97;;;;;;;4.61;100.00;97607.56;1708176;82;935275;-75
2020/12/04 07:09:42;;;;;;;16.00;11.07;;;;;;;4.61;100.00;97611.69;1706915;82;936696;-73
2020/12/04 07:12:17;;;;;;;14.07;10.50;;;;;;;4.54;100.00;97612.16;1708168;82;934987;-73
2020/12/04 07:14:50;;;;;;;15.57;10.80;;;;;;;4.59;100.00;97613.94;1707781;82;936775;-75
2020/12/04 07:17:22;;;;;;;14.55;10.18;;;;;;;4.57;100.00;97619.78;1691863;81;936988;-76
2020/12/04 07:19:54;;;;;;;15.67;11.00;;;;;;;4.55;100.00;97618.48;1708274;82;936853;-73
2020/12/04 07:22:25;;;;;;;15.57;10.57;;;;;;;4.56;100.00;97624.22;1691568;83;936704;-74
2020/12/04 07:24:58;;;;;;;11.93;8.90;;;;;;;4.61;100.00;97632.30;1708126;81;936754;-74
2020/12/04 07:27:29;;;;;;;13.72;9.63;;;;;;;4.52;100.00;97628.19;1696970;81;934597;-73
2020/12/04 07:29:59;;;;;;;14.27;9.80;;;;;;;4.51;100.00;97638.12;1707747;81;932834;-74
2020/12/04 07:32:29;;;;;;;13.33;8.10;;;;;;;4.53;100.00;97642.73;1696740;81;934864;-74
2020/12/04 07:34:59;;;;;;;10.67;7.43;;;;;;;4.46;100.00;97645.95;1708035;81;932683;-74
2020/12/04 07:37:29;;;;;;;9.85;7.70;;;;;;;4.48;100.00;97642.90;1696840;82;934813;-75
2020/12/04 07:40:02;;;;;;;10.10;7.53;;;;;;;4.42;100.00;97649.11;1707977;81;930720;-74
2020/12/04 07:42:33;;;;;;;11.43;8.33;;;;;;;4.42;100.00;97650.48;1697042;82;934726;-73
2020/12/04 07:45:02;;;;;;;10.50;7.37;;;;;;;4.45;100.00;97654.55;1707748;81;932753;-73
2020/12/04 07:47:32;;;;;;;9.30;7.20;;;;;;;4.37;100.00;97660.25;1696796;81;934593;-73
2020/12/04 07:50:02;;;;;;;11.50;8.20;;;;;;;4.37;100.00;97660.25;1708260;81;930527;-74
2020/12/04 07:52:36;;;;;;;10.27;7.27;;;;;;;4.41;100.00;97657.66;1697035;81;934649;-74
2020/12/04 07:55:07;;;;;;;10.50;7.10;;;;;;;4.51;100.00;97658.73;1707951;82;932752;-72
2020/12/04 07:57:40;;;;;;;9.57;7.00;;;;;;;4.49;100.00;97659.63;1696119;81;934641;-74
2020/12/04 08:00:12;;;;;;;9.47;7.03;;;;;;;4.52;100.00;97663.91;1708018;81;930692;-74
2020/12/04 08:02:42;;;;;;;10.57;7.50;;;;;;;4.57;100.00;97665.12;1708170;82;932507;-77
2020/12/04 08:05:20;;;;;;;9.70;6.67;;;;;;;4.54;100.00;97669.88;1708200;81;932813;-71
2020/12/04 08:07:54;;;;;;;8.67;6.60;;;;;;;4.56;100.00;97665.44;1707906;83;932817;-73
2020/12/04 08:10:24;;;;;;;7.73;6.40;;;;;;;4.61;100.00;97663.91;1696870;82;932757;-74
2020/12/04 08:12:56;;;;;;;9.53;7.07;;;;;;;4.59;100.00;97674.41;1708177;83;932526;-71
2020/12/04 08:15:26;;;;;;;8.50;6.60;;;;;;;4.51;100.00;97670.53;1697339;81;932693;-72
2020/12/04 08:18:03;;;;;;;8.27;6.87;;;;;;;4.60;100.00;97678.77;1708217;83;932810;-74
2020/12/04 08:20:34;;;;;;;8.63;6.70;;;;;;;4.65;100.00;97685.48;1697075;83;932523;-74
2020/12/04 08:23:03;;;;;;;8.87;6.57;;;;;;;4.63;100.00;97690.48;1707731;82;930630;-73
2020/12/04 08:25:33;;;;;;;8.33;6.37;;;;;;;4.68;100.00;97688.95;1697055;81;932991;-73
2020/12/04 08:28:04;;;;;;;9.80;7.20;;;;;;;4.70;100.00;97694.14;1708076;82;930654;-72
2020/12/04 08:30:38;;;;;;;7.97;6.12;;;;;;;4.69;100.00;97694.70;1696887;82;932522;-72
2020/12/04 08:33:07;;;;;;;7.63;6.13;;;;;;;4.71;100.00;97691.61;1708378;81;930620;-73
2020/12/04 08:35:39;;;;;;;7.47;5.67;;;;;;;4.73;100.00;97697.61;1695931;82;932854;-73
2020/12/04 08:38:11;;;;;;;7.53;6.07;;;;;;;4.69;100.00;97697.45;1708166;82;930646;-72
2020/12/04 08:40:45;;;;;;;9.47;5.13;;;;;;;4.76;100.00;97688.70;1708258;81;932539;-72
2020/12/04 08:43:16;;;;;;;7.93;5.20;;;;;;;4.99;100.00;97699.77;1696462;81;932622;-71
2020/12/04 08:45:47;;;;;;;6.87;4.90;;;;;;;4.73;100.00;97706.66;1706923;81;932501;-73
2020/12/04 08:48:20;;;;;;;7.63;5.77;;;;;;;4.70;100.00;97704.58;1696956;81;932519;-75
2020/12/04 08:50:51;;;;;;;6.80;5.23;;;;;;;4.75;100.00;97711.85;1707710;82;932564;-74
2020/12/04 08:53:23;;;;;;;5.62;4.50;;;;;;;4.87;100.00;97710.06;1696871;81;932696;-74
2020/12/04 08:55:54;;;;;;;6.33;4.87;;;;;;;4.76;100.00;97712.88;1708371;82;932548;-74
2020/12/04 08:58:26;;;;;;;5.15;4.20;;;;;;;4.73;100.00;97721.78;1696871;82;932553;-74
2020/12/04 09:00:58;;;;;;;6.20;4.80;;;;;;;4.80;100.00;97723.47;1708022;81;932583;-74
2020/12/04 09:03:30;;;;;;;5.08;4.03;;;;;;;4.83;100.00;97725.59;1697020;81;933630;-74
2020/12/04 09:06:00;;;;;;;6.17;5.00;;;;;;;4.85;100.00;97718.38;1708019;82;930621;-74
2020/12/04 09:08:30;;;;;;;4.85;4.05;;;;;;;4.87;100.00;97723.81;1697096;81;932530;-74
2020/12/04 09:10:59;;;;;;;8.10;4.60;;;;;;;4.85;100.00;97722.50;1708228;81;930754;-73
2020/12/04 09:13:29;;;;;;;4.90;4.30;;;;;;;4.89;100.00;97723.47;1697069;82;935203;-73
2020/12/04 09:15:59;;;;;;;3.97;3.43;;;;;;;5.09;100.00;97715.95;1707795;82;930696;-73
2020/12/04 09:18:29;;;;;;;4.67;4.10;;;;;;;4.90;100.00;97726.47;1697285;82;932448;-73
2020/12/04 09:20:59;;;;;;;5.13;3.77;;;;;;;4.89;100.00;97727.03;1708131;82;930643;-72
2020/12/04 09:23:31;;;;;;;6.60;3.98;;;;;;;5.02;100.00;97734.87;1695883;81;932549;-73
2020/12/04 09:26:00;;;;;;;5.30;3.80;;;;;;;4.91;100.00;97728.91;1708266;81;930654;-73
2020/12/04 09:28:30;;;;;;;5.77;4.10;;;;;;;4.91;100.00;97729.47;1695979;81;932648;-72
2020/12/04 09:31:01;;;;;;;5.10;4.00;;;;;;;4.90;100.00;97736.91;1708557;82;930937;-72
2020/12/04 09:33:31;;;;;;;5.03;3.92;;;;;;;4.97;100.00;97730.34;1696626;82;932652;-72
2020/12/04 09:36:01;;;;;;;5.07;3.90;;;;;;;5.03;100.00;97740.61;1708265;82;930646;-72
2020/12/04 09:38:31;;;;;;;6.80;4.53;;;;;;;5.03;100.00;97742.80;1696889;81;931595;-72
2020/12/04 09:41:01;;;;;;;5.23;4.10;;;;;;;5.03;100.00;97746.11;1708120;82;930655;-72
2020/12/04 09:43:30;;;;;;;5.80;4.67;;;;;;;5.09;100.00;97744.83;1697238;82;932821;-71
2020/12/04 09:46:00;;;;;;;6.30;5.00;;;;;;;5.08;100.00;97740.45;1707286;83;930760;-72
2020/12/04 09:48:30;;;;;;;6.03;4.50;;;;;;;5.17;100.00;97745.37;1697165;82;932536;-71
2020/12/04 09:51:00;;;;;;;6.47;5.53;;;;;;;5.18;100.00;97739.31;1708348;82;930665;-73
2020/12/04 09:53:29;;;;;;;9.15;5.25;;;;;;;5.23;100.00;97746.81;1696430;81;932618;-72
2020/12/04 09:55:59;;;;;;;7.63;5.17;;;;;;;5.27;100.00;97746.96;1707597;82;930641;-72
2020/12/04 09:58:29;;;;;;;6.00;4.72;;;;;;;5.31;100.00;97752.86;1696917;81;932645;-72
2020/12/04 10:00:59;;;;;;;5.30;4.77;;;;;;;5.30;100.00;97764.22;1708085;82;930826;-72
2020/12/04 10:03:29;;;;;;;5.47;4.83;;;;;;;5.27;100.00;97749.72;1697189;83;932781;-72
2020/12/04 10:05:58;;;;;;;5.77;4.60;;;;;;;5.28;100.00;97763.72;1708188;82;930753;-72
2020/12/04 10:08:28;;;;;;;5.80;4.47;;;;;;;5.30;100.00;97765.59;1695732;82;932505;-72
2020/12/04 10:10:58;;;;;;;5.03;4.53;;;;;;;5.32;100.00;97762.74;1707963;83;930781;-72
2020/12/04 10:13:28;;;;;;;4.78;4.30;;;;;;;5.37;100.00;97762.58;1697007;82;932715;-71
2020/12/04 10:16:05;;;;;;;5.27;4.23;;;;;;;5.44;100.00;97769.76;1708176;82;930664;-72
2020/12/04 10:18:35;;;;;;;4.53;4.07;;;;;;;5.53;100.00;97768.93;1696780;81;932533;-72
2020/12/04 10:21:04;;;;;;;4.63;3.80;;;;;;;5.50;100.00;97769.84;1708311;81;930908;-72
2020/12/04 10:23:35;;;;;;;5.10;3.57;;;;;;;5.47;100.00;97777.95;1696735;81;932577;-72
2020/12/04 10:26:04;;;;;;;8.43;6.73;;;;;;;5.55;100.00;97777.68;1708138;82;930603;-71
2020/12/04 10:28:34;;;;;;;4.10;3.63;;;;;;;5.54;100.00;97793.95;1696769;81;932613;-72
2020/12/04 10:31:05;;;;;;;4.80;3.70;;;;;;;5.56;100.00;97786.19;1708069;83;930766;-71
2020/12/04 10:33:34;;;;;;;4.03;3.40;;;;;;;5.57;100.00;97782.27;1696848;83;932768;-73
2020/12/04 10:36:05;;;;;;;3.83;3.43;;;;;;;5.66;100.00;97791.33;1708160;81;930794;-72
2020/12/04 10:38:35;;;;;;;4.93;3.43;;;;;;;5.62;100.00;97788.98;1697025;82;932653;-71
2020/12/04 10:41:04;;;;;;;5.00;3.67;;;;;;;5.65;100.00;97786.98;1708040;81;930597;-70
2020/12/04 10:43:34;;;;;;;3.87;3.50;;;;;;;5.61;100.00;97792.88;1696379;81;932585;-72
2020/12/04 10:46:05;;;;;;;2.87;2.57;;;;;;;5.64;100.00;97793.61;1705629;82;930532;-72
2020/12/04 10:48:34;;;;;;;5.17;4.57;;;;;;;5.71;100.00;97791.16;1696419;82;932782;-74
2020/12/04 10:51:04;;;;;;;4.03;3.30;;;;;;;5.73;100.00;97797.16;1707416;83;930822;-73
2020/12/04 10:53:34;;;;;;;3.47;3.10;;;;;;;5.80;100.00;97796.89;1695757;81;932760;-75
2020/12/04 10:56:04;;;;;;;3.33;3.03;;;;;;;5.83;100.00;97796.22;1707460;82;930810;-73
2020/12/04 10:58:34;;;;;;;5.60;3.57;;;;;;;5.77;100.00;97793.98;1696760;81;932591;-71
2020/12/04 11:01:04;;;;;;;3.33;2.53;;;;;;;5.82;100.00;97791.84;1707681;82;930634;-72
2020/12/04 11:03:42;;;;;;;2.70;2.50;;;;;;;5.83;100.00;97796.78;1695894;82;932556;-72
2020/12/04 11:06:09;;;;;;;4.53;2.87;;;;;;;5.77;100.00;97796.74;1707069;82;930853;-70
2020/12/04 11:08:40;;;;;;;2.90;2.60;;;;;;;5.83;100.00;97798.16;1707369;82;932636;-71
2020/12/04 11:11:10;;;;;;;3.57;2.30;;;;;;;5.79;100.00;97801.33;1708161;82;930630;-72
2020/12/04 11:13:40;;;;;;;2.53;2.07;;;;;;;5.82;100.00;97795.97;1708153;81;932734;-71
2020/12/04 11:16:10;;;;;;;4.87;2.27;;;;;;;5.86;100.00;97808.55;1708143;81;930577;-69
2020/12/04 11:18:42;;;;;;;2.60;2.20;;;;;;;5.94;100.00;97804.42;1707790;81;932633;-72
2020/12/04 11:21:12;;;;;;;3.13;2.20;;;;;;;5.92;100.00;97810.00;1708045;81;930681;-72
2020/12/04 11:23:42;;;;;;;5.10;2.63;;;;;;;5.90;100.00;97813.66;1708040;81;932562;-73
2020/12/04 11:26:12;;;;;;;2.27;2.00;;;;;;;5.99;100.00;97819.92;1708086;81;930635;-72
2020/12/04 11:28:42;;;;;;;3.50;2.03;;;;;;;5.95;100.00;97818.97;1708086;81;932637;-72
2020/12/04 11:31:12;;;;;;;2.10;1.80;;;;;;;5.91;100.00;97813.87;1708205;83;930813;-72